createdAt,value
2018-09-05T00:00:42.386Z,58.27
2018-09-05T00:03:10.142Z,58.80
2018-09-05T00:05:37.839Z,58.25
2018-09-05T00:08:05.641Z,59.03
2018-09-05T00:10:33.354Z,58.96
2018-09-05T00:13:01.048Z,58.19
2018-09-05T00:15:28.734Z,58.25
2018-09-05T00:17:56.487Z,58.37
2018-09-05T00:20:24.210Z,59.42
2018-09-05T00:22:51.917Z,58.33
2018-09-05T00:25:19.594Z,59.00
2018-09-05T00:27:47.392Z,58.99
2018-09-05T00:30:15.054Z,58.99
2018-09-05T00:32:42.722Z,58.89
2018-09-05T00:35:10.408Z,59.00
2018-09-05T00:37:38.068Z,59.07
2018-09-05T00:40:05.924Z,58.34
2018-09-05T00:42:33.699Z,58.98
2018-09-05T00:45:01.355Z,58.38
2018-09-05T00:47:29.009Z,59.03
2018-09-05T00:50:00.182Z,58.26
2018-09-05T00:52:28.749Z,58.96
2018-09-05T00:54:56.865Z,58.49
2018-09-05T00:57:24.847Z,59.07
2018-09-05T00:59:52.626Z,58.87
2018-09-05T01:02:20.430Z,58.98
2018-09-05T01:04:48.126Z,59.02
2018-09-05T01:07:23.490Z,58.41
2018-09-05T01:09:51.206Z,58.34
2018-09-05T01:12:20.473Z,58.98
2018-09-05T01:14:48.213Z,58.25
2018-09-05T01:17:15.937Z,58.37
2018-09-05T01:19:43.632Z,58.26
2018-09-05T01:22:11.469Z,59.06
2018-09-05T01:24:39.578Z,58.80
2018-09-05T01:27:08.036Z,58.77
2018-09-05T01:29:37.147Z,58.86
2018-09-05T01:32:04.902Z,59.08
2018-09-05T01:34:32.601Z,58.31
2018-09-05T01:37:00.320Z,58.41
2018-09-05T01:39:28.016Z,59.08
2018-09-05T01:41:55.814Z,59.13
2018-09-05T01:44:23.492Z,58.33
2018-09-05T01:46:51.199Z,58.75
2018-09-05T01:49:18.938Z,59.08
2018-09-05T01:51:46.621Z,59.14
2018-09-05T01:54:16.008Z,59.21
2018-09-05T01:56:43.826Z,58.53
2018-09-05T01:59:11.549Z,59.10
2018-09-05T02:01:39.279Z,58.34
2018-09-05T02:04:06.929Z,58.49
2018-09-05T02:06:34.601Z,58.79
2018-09-05T02:09:02.402Z,58.85
2018-09-05T02:11:30.107Z,58.56
2018-09-05T02:13:57.818Z,58.89
2018-09-05T02:16:25.520Z,58.41
2018-09-05T02:18:53.222Z,58.49
2018-09-05T02:21:20.933Z,58.36
2018-09-05T02:23:48.611Z,59.05
2018-09-05T02:26:16.296Z,58.77
2018-09-05T02:28:44.017Z,58.76
2018-09-05T02:31:11.703Z,58.38
2018-09-05T02:33:39.442Z,59.04
2018-09-05T02:36:07.118Z,58.90
2018-09-05T02:38:34.829Z,58.76
2018-09-05T02:41:02.480Z,58.26
2018-09-05T02:43:35.553Z,59.20
2018-09-05T02:46:03.261Z,58.63
2018-09-05T02:48:30.974Z,58.86
2018-09-05T02:50:58.628Z,58.44
2018-09-05T02:53:26.317Z,58.93
2018-09-05T02:55:59.137Z,58.45
2018-09-05T02:58:26.820Z,59.22
2018-09-05T03:00:54.539Z,58.45
2018-09-05T03:03:22.389Z,58.67
2018-09-05T03:05:50.246Z,58.52
2018-09-05T03:08:17.933Z,58.80
2018-09-05T03:10:45.693Z,58.57
2018-09-05T03:13:13.430Z,59.39
2018-09-05T03:15:41.144Z,59.05
2018-09-05T03:18:08.928Z,58.79
2018-09-05T03:20:36.706Z,58.52
2018-09-05T03:23:04.401Z,58.52
2018-09-05T03:25:32.109Z,59.30
2018-09-05T03:27:59.760Z,58.55
2018-09-05T03:30:27.421Z,58.72
2018-09-05T03:32:55.144Z,58.66
2018-09-05T03:35:23.033Z,59.30
2018-09-05T03:37:50.756Z,59.34
2018-09-05T03:40:18.462Z,59.30
2018-09-05T03:42:46.145Z,59.22
2018-09-05T03:45:13.838Z,58.79
2018-09-05T03:47:41.556Z,58.60
2018-09-05T03:50:09.773Z,58.56
2018-09-05T03:52:37.474Z,59.10
2018-09-05T03:55:05.198Z,59.47
2018-09-05T03:57:32.889Z,59.38
2018-09-05T04:00:00.611Z,59.02
2018-09-05T04:02:28.330Z,58.89
2018-09-05T04:04:56.207Z,59.10
2018-09-05T04:07:23.964Z,59.46
2018-09-05T04:09:51.677Z,59.49
2018-09-05T04:12:19.510Z,59.39
2018-09-05T04:14:47.297Z,59.54
2018-09-05T04:17:15.027Z,58.94
2018-09-05T04:19:43.522Z,58.80
2018-09-05T04:22:11.275Z,59.25
2018-09-05T04:24:38.935Z,59.71
2018-09-05T04:27:06.737Z,59.06
2018-09-05T04:29:34.521Z,59.61
2018-09-05T04:32:02.137Z,58.98
2018-09-05T04:34:29.992Z,59.20
2018-09-05T04:36:57.644Z,59.55
2018-09-05T04:39:25.331Z,59.76
2018-09-05T04:41:53.049Z,59.63
2018-09-05T04:44:20.721Z,60.14
2018-09-05T04:46:48.447Z,59.79
2018-09-05T04:49:16.201Z,59.79
2018-09-05T04:51:43.886Z,59.12
2018-09-05T04:54:11.555Z,59.11
2018-09-05T04:56:39.246Z,59.75
2018-09-05T04:59:07.017Z,59.85
2018-09-05T05:01:34.874Z,59.00
2018-09-05T05:04:02.751Z,59.06
2018-09-05T05:06:30.474Z,59.08
2018-09-05T05:08:58.197Z,59.03
2018-09-05T05:11:26.045Z,59.58
2018-09-05T05:13:54.090Z,59.06
2018-09-05T05:16:21.692Z,59.57
2018-09-05T05:18:49.327Z,59.60
2018-09-05T05:21:16.954Z,59.31
2018-09-05T05:23:44.611Z,59.83
2018-09-05T05:26:12.236Z,59.50
2018-09-05T05:28:39.889Z,59.00
2018-09-05T05:31:07.509Z,59.90
2018-09-05T05:33:35.210Z,59.12
2018-09-05T05:36:02.829Z,59.62
2018-09-05T05:38:30.512Z,58.97
2018-09-05T05:40:58.124Z,59.29
2018-09-05T05:43:25.754Z,59.36
2018-09-05T05:45:53.374Z,59.56
2018-09-05T05:48:21.007Z,59.59
2018-09-05T05:50:49.289Z,59.64
2018-09-05T05:53:16.908Z,58.93
2018-09-05T05:55:44.533Z,59.34
2018-09-05T05:58:12.165Z,59.63
2018-09-05T06:00:39.953Z,59.40
2018-09-05T06:03:07.626Z,59.52
2018-09-05T06:05:35.313Z,58.96
2018-09-05T06:08:03.069Z,58.99
2018-09-05T06:10:30.822Z,59.54
2018-09-05T06:12:59.255Z,59.47
2018-09-05T06:15:27.722Z,59.47
2018-09-05T06:17:55.451Z,59.39
2018-09-05T06:20:23.213Z,58.75
2018-09-05T06:22:50.998Z,58.98
2018-09-05T06:25:18.889Z,58.64
2018-09-05T06:27:46.723Z,59.22
2018-09-05T06:30:14.398Z,59.44
2018-09-05T06:32:42.097Z,58.26
2018-09-05T06:35:09.849Z,58.11
2018-09-05T06:37:37.857Z,59.42
2018-09-05T06:40:05.922Z,58.79
2018-09-05T06:42:33.657Z,58.54
2018-09-05T06:45:01.537Z,58.73
2018-09-05T06:47:29.260Z,59.26
2018-09-05T06:49:57.310Z,59.25
2018-09-05T06:52:25.058Z,58.32
2018-09-05T06:54:52.944Z,58.75
2018-09-05T06:57:20.753Z,59.24
2018-09-05T06:59:48.602Z,58.58
2018-09-05T07:02:16.662Z,59.33
2018-09-05T07:04:44.513Z,59.34
2018-09-05T07:07:12.583Z,58.62
2018-09-05T07:09:40.357Z,59.07
2018-09-05T07:12:08.162Z,58.80
2018-09-05T07:14:36.081Z,59.40
2018-09-05T07:17:04.036Z,59.39
2018-09-05T07:19:31.967Z,58.70
2018-09-05T07:22:00.069Z,58.61
2018-09-05T07:24:27.934Z,58.45
2018-09-05T07:26:55.703Z,58.59
2018-09-05T07:29:23.553Z,58.52
2018-09-05T07:31:51.384Z,58.44
2018-09-05T07:34:19.146Z,58.91
2018-09-05T07:36:46.964Z,58.59
2018-09-05T07:39:14.874Z,58.36
2018-09-05T07:41:42.713Z,58.41
2018-09-05T07:44:10.639Z,58.72
2018-09-05T07:46:38.354Z,58.12
2018-09-05T07:49:06.335Z,58.29
2018-09-05T07:51:34.133Z,58.31
2018-09-05T07:54:01.942Z,58.57
2018-09-05T07:56:29.692Z,58.84
2018-09-05T07:58:57.608Z,58.29
2018-09-05T08:01:25.412Z,58.44
2018-09-05T08:03:53.477Z,58.74
2018-09-05T08:06:21.255Z,59.20
2018-09-05T08:08:49.553Z,59.14
2018-09-05T08:11:17.446Z,58.48
2018-09-05T08:13:45.421Z,59.26
2018-09-05T08:16:13.320Z,58.75
2018-09-05T08:18:41.083Z,58.46
2018-09-05T08:21:39.087Z,59.19
2018-09-05T08:24:07.019Z,58.43
2018-09-05T08:26:34.833Z,59.09
2018-09-05T08:29:02.697Z,58.22
2018-09-05T08:31:30.572Z,58.83
2018-09-05T08:33:58.257Z,58.45
2018-09-05T08:36:26.203Z,58.39
2018-09-05T08:38:53.811Z,58.31
2018-09-05T08:41:21.565Z,59.02
2018-09-05T08:43:49.265Z,59.19
2018-09-05T08:46:17.055Z,58.13
2018-09-05T08:48:44.760Z,58.26
2018-09-05T08:51:12.517Z,58.86
2018-09-05T08:53:40.234Z,58.78
2018-09-05T08:56:07.941Z,58.28
2018-09-05T08:58:35.600Z,58.80
2018-09-05T09:01:03.226Z,58.82
2018-09-05T09:03:30.860Z,58.86
2018-09-05T09:05:58.635Z,58.93
2018-09-05T09:08:26.283Z,58.52
2018-09-05T09:10:53.986Z,58.25
2018-09-05T09:13:21.629Z,58.48
2018-09-05T09:15:49.946Z,58.48
2018-09-05T09:18:18.661Z,58.94
2018-09-05T09:20:46.286Z,58.14
2018-09-05T09:23:13.904Z,58.28
2018-09-05T09:25:41.549Z,58.86
2018-09-05T09:28:09.254Z,58.71
2018-09-05T09:30:36.862Z,58.71
2018-09-05T09:33:04.499Z,58.80
2018-09-05T09:35:32.130Z,58.33
2018-09-05T09:37:59.753Z,58.62
2018-09-05T09:40:27.413Z,58.72
2018-09-05T09:42:55.103Z,58.69
2018-09-05T09:45:22.744Z,58.74
2018-09-05T09:47:50.500Z,58.88
2018-09-05T09:50:18.120Z,58.71
2018-09-05T09:52:45.744Z,58.01
2018-09-05T09:55:13.375Z,58.59
2018-09-05T09:57:41.027Z,58.62
2018-09-05T10:00:08.775Z,57.84
2018-09-05T10:02:41.901Z,57.97
2018-09-05T10:05:14.774Z,57.97
2018-09-05T10:07:47.859Z,57.55
2018-09-05T10:10:21.191Z,57.23
2018-09-05T10:12:48.918Z,57.18
2018-09-05T10:16:24.741Z,57.79
2018-09-05T10:18:53.456Z,58.00
2018-09-05T10:21:21.318Z,57.05
2018-09-05T10:23:48.989Z,57.54
2018-09-05T10:26:16.613Z,58.01
2018-09-05T10:28:44.242Z,57.34
2018-09-05T10:31:11.897Z,57.02
2018-09-05T10:33:39.559Z,58.02
2018-09-05T10:36:07.185Z,58.07
2018-09-05T10:38:34.827Z,57.05
2018-09-05T10:41:02.456Z,57.00
2018-09-05T10:43:30.097Z,57.90
2018-09-05T10:45:57.746Z,57.14
2018-09-05T10:48:25.495Z,57.08
2018-09-05T10:50:53.154Z,57.14
2018-09-05T10:53:20.778Z,57.00
2018-09-05T10:55:48.811Z,57.05
2018-09-05T10:58:16.467Z,57.75
2018-09-05T11:00:44.137Z,56.97
2018-09-05T11:03:11.774Z,57.04
2018-09-05T11:05:39.397Z,56.98
2018-09-05T11:08:07.197Z,57.60
2018-09-05T11:10:34.897Z,56.99
2018-09-05T11:13:02.499Z,57.91
2018-09-05T11:15:30.122Z,57.24
2018-09-05T11:17:57.761Z,57.85
2018-09-05T11:20:25.448Z,56.76
2018-09-05T11:22:53.097Z,56.98
2018-09-05T11:25:20.741Z,57.15
2018-09-05T11:27:48.447Z,56.96
2018-09-05T11:30:16.038Z,56.86
2018-09-05T11:32:43.672Z,57.00
2018-09-05T11:35:11.381Z,56.97
2018-09-05T11:37:39.052Z,56.83
2018-09-05T11:40:07.185Z,57.48
2018-09-05T11:42:34.833Z,56.81
2018-09-05T11:45:02.470Z,56.75
2018-09-05T11:47:30.101Z,57.59
2018-09-05T11:49:57.732Z,57.40
2018-09-05T11:52:25.382Z,56.65
2018-09-05T11:54:53.012Z,57.43
2018-09-05T11:57:20.722Z,56.72
2018-09-05T11:59:48.348Z,57.45
2018-09-05T12:02:16.060Z,56.76
2018-09-05T12:04:43.710Z,56.63
2018-09-05T12:07:11.966Z,56.89
2018-09-05T12:09:39.606Z,56.72
2018-09-05T12:12:07.306Z,57.17
2018-09-05T12:14:35.059Z,56.78
2018-09-05T12:17:03.036Z,57.06
2018-09-05T12:19:30.885Z,57.26
2018-09-05T12:21:58.692Z,56.65
2018-09-05T12:24:26.528Z,57.36
2018-09-05T12:26:54.311Z,57.36
2018-09-05T12:29:22.146Z,56.76
2018-09-05T12:31:50.574Z,57.25
2018-09-05T12:34:18.309Z,56.48
2018-09-05T12:36:46.118Z,57.13
2018-09-05T12:39:14.846Z,56.59
2018-09-05T12:41:43.208Z,57.21
2018-09-05T12:44:11.178Z,56.80
2018-09-05T12:46:39.131Z,56.46
2018-09-05T12:49:06.817Z,56.83
2018-09-05T12:51:34.539Z,56.46
2018-09-05T12:54:02.311Z,56.79
2018-09-05T12:56:29.996Z,56.97
2018-09-05T12:58:57.694Z,56.74
2018-09-05T13:01:25.548Z,57.08
2018-09-05T13:03:53.325Z,57.10
2018-09-05T13:06:21.043Z,57.05
2018-09-05T13:08:48.737Z,56.60
2018-09-05T13:11:16.582Z,56.99
2018-09-05T13:13:44.358Z,56.20
2018-09-05T13:16:12.033Z,56.91
2018-09-05T13:18:39.814Z,57.09
2018-09-05T13:21:07.538Z,56.29
2018-09-05T13:23:35.541Z,56.76
2018-09-05T13:26:03.249Z,56.28
2018-09-05T13:28:31.019Z,57.03
2018-09-05T13:30:58.734Z,56.14
2018-09-05T13:33:26.511Z,56.87
2018-09-05T13:35:54.348Z,56.85
2018-09-05T13:38:22.100Z,55.97
2018-09-05T13:40:49.957Z,56.00
2018-09-05T13:43:17.793Z,55.61
2018-09-05T13:45:45.603Z,55.90
2018-09-05T13:48:13.361Z,56.28
2018-09-05T13:50:41.121Z,55.85
2018-09-05T13:53:08.908Z,55.78
2018-09-05T13:55:36.666Z,56.57
2018-09-05T13:58:04.510Z,56.04
2018-09-05T14:00:32.247Z,55.79
2018-09-05T14:03:00.009Z,56.67
2018-09-05T14:05:27.827Z,55.86
2018-09-05T14:07:55.592Z,55.87
2018-09-05T14:10:23.417Z,55.77
2018-09-05T14:12:51.174Z,55.83
2018-09-05T14:15:18.915Z,56.30
2018-09-05T14:17:46.760Z,55.86
2018-09-05T14:20:14.594Z,55.89
2018-09-05T14:22:42.356Z,55.82
2018-09-05T14:25:10.106Z,56.63
2018-09-05T14:27:37.970Z,56.64
2018-09-05T14:30:05.746Z,56.06
2018-09-05T14:32:33.545Z,55.86
2018-09-05T14:35:01.326Z,56.69
2018-09-05T14:37:29.101Z,56.10
2018-09-05T14:39:56.751Z,56.22
2018-09-05T14:42:24.484Z,56.89
2018-09-05T14:44:52.126Z,56.81
2018-09-05T14:47:19.795Z,56.48
2018-09-05T14:49:47.447Z,56.70
2018-09-05T14:52:15.082Z,57.04
2018-09-05T14:54:42.717Z,56.18
2018-09-05T14:57:10.345Z,56.95
2018-09-05T14:59:38.050Z,56.29
2018-09-05T15:02:05.675Z,56.16
2018-09-05T15:04:33.319Z,57.08
2018-09-05T15:07:01.198Z,56.79
2018-09-05T15:09:29.226Z,57.57
2018-09-05T15:11:56.993Z,58.17
2018-09-05T15:14:24.818Z,62.09
2018-09-05T15:16:52.624Z,62.10
2018-09-05T15:19:20.401Z,60.86
2018-09-05T15:21:48.133Z,60.86
2018-09-05T15:24:15.842Z,61.04
2018-09-05T15:26:43.560Z,61.19
2018-09-05T15:29:11.363Z,60.80
2018-09-05T15:31:39.102Z,60.32
2018-09-05T15:34:06.850Z,60.42
2018-09-05T15:36:34.538Z,60.71
2018-09-05T15:39:02.382Z,60.11
2018-09-05T15:41:30.121Z,60.88
2018-09-05T15:43:57.832Z,60.06
2018-09-05T15:46:25.583Z,60.65
2018-09-05T15:48:53.388Z,60.02
2018-09-05T15:51:21.131Z,60.40
2018-09-05T15:53:48.931Z,60.03
2018-09-05T15:56:16.674Z,60.41
2018-09-05T15:58:44.468Z,59.62
2018-09-05T16:01:12.237Z,59.50
2018-09-05T16:03:40.040Z,59.48
2018-09-05T16:06:07.691Z,59.77
2018-09-05T16:08:35.429Z,59.67
2018-09-05T16:11:03.343Z,60.06
2018-09-05T16:13:31.060Z,60.09
2018-09-05T16:15:58.802Z,60.02
2018-09-05T16:18:26.525Z,59.14
2018-09-05T16:20:54.320Z,59.89
2018-09-05T16:23:22.000Z,59.09
2018-09-05T16:25:49.699Z,59.93
2018-09-05T16:28:17.463Z,59.08
2018-09-05T16:30:45.196Z,59.75
2018-09-05T16:38:02.287Z,58.98
2018-09-05T16:40:30.270Z,59.90
2018-09-05T16:42:58.187Z,59.86
2018-09-05T16:45:26.228Z,59.72
2018-09-05T16:47:54.339Z,59.40
2018-09-05T16:50:22.761Z,59.74
2018-09-05T16:52:50.831Z,59.75
2018-09-05T16:55:19.795Z,59.03
2018-09-05T16:57:47.821Z,59.52
2018-09-05T17:00:15.846Z,59.59
2018-09-05T17:02:43.797Z,58.89
2018-09-05T17:05:11.659Z,58.97
2018-09-05T17:07:39.366Z,58.87
2018-09-05T17:10:07.101Z,59.54
2018-09-05T17:12:34.906Z,59.02
2018-09-05T17:15:02.654Z,58.83
2018-09-05T17:17:30.388Z,58.91
2018-09-05T17:19:58.173Z,59.60
2018-09-05T17:22:25.972Z,59.42
2018-09-05T17:24:53.892Z,59.57
2018-09-05T17:27:21.670Z,59.34
2018-09-05T17:29:49.376Z,59.70
2018-09-05T17:32:17.123Z,58.92
2018-09-05T17:34:45.008Z,59.62
2018-09-05T17:37:12.732Z,58.90
2018-09-05T17:39:40.488Z,58.97
2018-09-05T17:42:08.263Z,59.53
2018-09-05T17:44:35.995Z,59.70
2018-09-05T17:47:03.730Z,59.56
2018-09-05T17:49:31.433Z,58.92
2018-09-05T17:51:59.193Z,59.31
2018-09-05T17:54:26.946Z,59.63
2018-09-05T17:56:54.642Z,59.06
2018-09-05T17:59:22.397Z,59.54
2018-09-05T18:01:50.234Z,59.72
2018-09-05T18:04:17.998Z,59.05
2018-09-05T18:06:45.785Z,59.65
2018-09-05T18:09:13.505Z,59.23
2018-09-05T18:11:41.230Z,59.68
2018-09-05T18:14:09.013Z,60.10
2018-09-05T18:16:36.700Z,59.88
2018-09-05T18:19:04.447Z,59.65
2018-09-05T18:21:32.287Z,59.77
2018-09-05T18:24:00.028Z,59.93
2018-09-05T18:26:27.838Z,59.74
2018-09-05T18:28:55.625Z,58.85
2018-09-05T18:31:23.378Z,58.99
2018-09-05T18:33:51.199Z,59.79
2018-09-05T18:36:18.974Z,59.75
2018-09-05T18:38:46.634Z,59.45
2018-09-05T18:41:14.372Z,58.96
2018-09-05T18:43:42.134Z,59.59
2018-09-05T18:46:09.885Z,59.73
2018-09-05T18:48:37.557Z,59.49
2018-09-05T18:51:05.349Z,58.95
2018-09-05T18:53:33.167Z,59.20
2018-09-05T18:56:00.903Z,58.95
2018-09-05T18:58:28.672Z,59.70
2018-09-05T19:00:56.534Z,58.98
2018-09-05T19:03:24.317Z,59.03
2018-09-05T19:05:51.970Z,58.97
2018-09-05T19:08:19.907Z,58.92
2018-09-05T19:10:47.582Z,58.92
2018-09-05T19:13:15.399Z,59.68
2018-09-05T19:15:43.128Z,59.18
2018-09-05T19:18:10.813Z,59.02
2018-09-05T19:20:38.502Z,59.30
2018-09-05T19:23:06.376Z,58.94
2018-09-05T19:25:34.101Z,59.04
2018-09-05T19:28:01.897Z,59.66
2018-09-05T19:30:29.693Z,59.67
2018-09-05T19:32:57.521Z,59.17
2018-09-05T19:35:25.401Z,59.05
2018-09-05T19:37:53.372Z,59.42
2018-09-05T19:40:21.093Z,59.67
2018-09-05T19:42:48.955Z,59.56
2018-09-05T19:45:16.838Z,59.44
2018-09-05T19:47:44.729Z,59.59
2018-09-05T19:50:12.631Z,59.49
2018-09-05T19:52:40.415Z,59.53
2018-09-05T19:55:08.234Z,58.96
2018-09-05T19:57:36.002Z,59.58
2018-09-05T20:00:03.800Z,59.82
2018-09-05T20:02:31.581Z,58.87
2018-09-05T20:04:59.433Z,59.56
2018-09-05T20:07:27.141Z,59.52
2018-09-05T20:09:54.908Z,59.56
2018-09-05T20:12:22.679Z,59.47
2018-09-05T20:14:50.541Z,59.55
2018-09-05T20:17:18.624Z,59.46
2018-09-05T20:19:46.447Z,59.38
2018-09-05T20:22:14.183Z,58.67
2018-09-05T20:24:42.058Z,59.45
2018-09-05T20:27:10.280Z,58.68
2018-09-05T20:29:38.020Z,59.10
2018-09-05T20:32:06.125Z,59.38
2018-09-05T20:34:33.879Z,58.70
2018-09-05T20:37:01.748Z,58.86
2018-09-05T20:39:29.521Z,58.84
2018-09-05T20:41:57.325Z,59.45
2018-09-05T20:44:25.135Z,59.73
2018-09-05T20:46:53.812Z,59.42
2018-09-05T20:49:21.608Z,58.86
2018-09-05T20:51:49.450Z,58.68
2018-09-05T20:54:17.296Z,59.56
2018-09-05T20:56:45.087Z,58.91
2018-09-05T20:59:12.957Z,58.99
2018-09-05T21:01:40.759Z,59.40
2018-09-05T21:04:08.491Z,59.54
2018-09-05T21:06:36.189Z,59.21
2018-09-05T21:09:05.155Z,59.57
2018-09-05T21:11:32.911Z,58.97
2018-09-05T21:14:00.786Z,59.71
2018-09-05T21:16:28.505Z,58.97
2018-09-05T21:18:56.298Z,59.53
2018-09-05T21:21:24.001Z,59.66
2018-09-05T21:23:51.666Z,59.64
2018-09-05T21:26:19.453Z,58.97
2018-09-05T21:28:47.116Z,59.06
2018-09-05T21:31:14.796Z,58.99
2018-09-05T21:33:42.598Z,58.92
2018-09-05T21:36:10.300Z,59.63
2018-09-05T21:38:38.104Z,58.99
2018-09-05T21:41:05.842Z,59.52
2018-09-05T21:43:33.553Z,59.16
2018-09-05T21:46:01.311Z,59.48
2018-09-05T21:48:29.402Z,59.19
2018-09-05T21:50:57.100Z,58.90
2018-09-05T21:53:24.931Z,59.49
2018-09-05T21:55:52.633Z,58.80
2018-09-05T21:58:20.496Z,59.44
2018-09-05T22:00:48.718Z,59.55
2018-09-05T22:03:16.474Z,59.50
2018-09-05T22:05:44.202Z,59.11
2018-09-05T22:08:11.945Z,58.83
2018-09-05T22:10:39.693Z,58.76
2018-09-05T22:13:07.522Z,59.02
2018-09-05T22:15:40.601Z,59.06
2018-09-05T22:18:08.332Z,58.74
2018-09-05T22:20:36.113Z,59.53
2018-09-05T22:23:03.861Z,59.43
2018-09-05T22:25:31.602Z,58.76
2018-09-05T22:27:59.592Z,59.53
2018-09-05T22:33:01.953Z,59.49
2018-09-05T22:35:30.021Z,58.92
2018-09-05T22:37:57.911Z,59.05
2018-09-05T22:40:26.031Z,59.49
2018-09-05T22:42:59.184Z,58.66
2018-09-05T22:45:32.545Z,59.52
2018-09-05T22:48:11.104Z,58.77
2018-09-05T22:50:54.508Z,59.56
2018-09-05T22:54:30.824Z,59.05
2018-09-05T22:57:17.948Z,59.55
2018-09-05T22:59:52.003Z,58.73
2018-09-05T23:02:35.522Z,59.23
2018-09-05T23:06:09.418Z,59.29
2018-09-05T23:08:42.361Z,58.95
2018-09-05T23:11:15.838Z,59.29
2018-09-05T23:13:49.223Z,58.77
2018-09-05T23:16:22.763Z,58.25
2018-09-05T23:19:00.797Z,59.01
2018-09-05T23:21:28.648Z,58.83
2018-09-05T23:23:58.101Z,58.77
2018-09-05T23:26:25.943Z,59.39
2018-09-05T23:28:53.700Z,59.48
2018-09-05T23:31:21.701Z,58.89
2018-09-05T23:33:49.423Z,59.37
2018-09-05T23:36:17.171Z,58.76
2018-09-05T23:38:44.925Z,58.89
2018-09-05T23:41:12.667Z,59.50
2018-09-05T23:43:40.444Z,58.73
2018-09-05T23:46:08.249Z,59.27
2018-09-05T23:48:36.154Z,59.23
2018-09-05T23:51:03.845Z,58.84
2018-09-05T23:53:31.658Z,59.39
2018-09-05T23:55:59.403Z,59.48
2018-09-05T23:58:27.180Z,58.81
